sensor_id;sensor_type;location;lat;lon;timestamp;pressure;altitude;pressure_sealevel;temperature;humidity
35023;BME280;21214;44.912;8.204;2022-10-16T00:01:16;100051.03;;;18.00;100.00
35023;BME280;21214;44.912;8.204;2022-10-16T00:03:43;100055.16;;;18.02;100.00
35023;BME280;21214;44.912;8.204;2022-10-16T00:06:10;100051.69;;;18.02;100.00
35023;BME280;21214;44.912;8.204;2022-10-16T00:08:37;100056.34;;;18.00;100.00
35023;BME280;21214;44.912;8.204;2022-10-16T00:11:08;100059.69;;;18.02;100.00
35023;BME280;21214;44.912;8.204;2022-10-16T00:13:36;100054.69;;;17.99;100.00
35023;BME280;21214;44.912;8.204;2022-10-16T00:16:02;100055.91;;;17.96;100.00
35023;BME280;21214;44.912;8.204;2022-10-16T00:18:28;100062.41;;;17.94;100.00
35023;BME280;21214;44.912;8.204;2022-10-16T00:20:55;100061.13;;;17.90;100.00
35023;BME280;21214;44.912;8.204;2022-10-16T00:23:21;100057.13;;;17.86;100.00
35023;BME280;21214;44.912;8.204;2022-10-16T00:25:58;100063.81;;;17.82;100.00
35023;BME280;21214;44.912;8.204;2022-10-16T00:28:24;100062.16;;;17.81;100.00
35023;BME280;21214;44.912;8.204;2022-10-16T00:30:50;100064.19;;;17.79;100.00
35023;BME280;21214;44.912;8.204;2022-10-16T00:33:16;100065.38;;;17.76;100.00
35023;BME280;21214;44.912;8.204;2022-10-16T00:35:42;100064.53;;;17.76;100.00
35023;BME280;21214;44.912;8.204;2022-10-16T00:38:09;100069.53;;;17.79;100.00
35023;BME280;21214;44.912;8.204;2022-10-16T00:40:34;100064.19;;;17.79;100.00
35023;BME280;21214;44.912;8.204;2022-10-16T00:43:00;100068.88;;;17.77;100.00
35023;BME280;21214;44.912;8.204;2022-10-16T00:45:25;100060.03;;;17.76;100.00
35023;BME280;21214;44.912;8.204;2022-10-16T00:47:52;100065.38;;;17.76;100.00
35023;BME280;21214;44.912;8.204;2022-10-16T00:50:26;100065.38;;;17.76;100.00
35023;BME280;21214;44.912;8.204;2022-10-16T00:52:56;100065.53;;;17.75;100.00
35023;BME280;21214;44.912;8.204;2022-10-16T00:55:23;100071.88;;;17.74;100.00
35023;BME280;21214;44.912;8.204;2022-10-16T00:57:49;100076.38;;;17.73;100.00
35023;BME280;21214;44.912;8.204;2022-10-16T01:00:19;100073.06;;;17.71;100.00
35023;BME280;21214;44.912;8.204;2022-10-16T01:02:52;100075.91;;;17.70;100.00
35023;BME280;21214;44.912;8.204;2022-10-16T01:05:18;100086.25;;;17.73;100.00
35023;BME280;21214;44.912;8.204;2022-10-16T01:07:59;100083.59;;;17.73;100.00
35023;BME280;21214;44.912;8.204;2022-10-16T01:10:30;100086.25;;;17.73;100.00
35023;BME280;21214;44.912;8.204;2022-10-16T01:13:08;100090.56;;;17.74;100.00
35023;BME280;21214;44.912;8.204;2022-10-16T01:18:43;100082.41;;;17.67;100.00
35023;BME280;21214;44.912;8.204;2022-10-16T01:21:22;100087.66;;;17.61;100.00
35023;BME280;21214;44.912;8.204;2022-10-16T01:24:02;100086.28;;;17.56;100.00
35023;BME280;21214;44.912;8.204;2022-10-16T01:31:39;100081.31;;;17.53;100.00
35023;BME280;21214;44.912;8.204;2022-10-16T01:36:39;100091.69;;;17.48;100.00
35023;BME280;21214;44.912;8.204;2022-10-16T01:39:09;100094.34;;;17.48;100.00
35023;BME280;21214;44.912;8.204;2022-10-16T01:41:43;100092.38;;;17.42;100.00
35023;BME280;21214;44.912;8.204;2022-10-16T01:44:18;100085.06;;;17.36;100.00
35023;BME280;21214;44.912;8.204;2022-10-16T01:46:47;100090.41;;;17.36;100.00
35023;BME280;21214;44.912;8.204;2022-10-16T01:49:16;100090.72;;;17.33;100.00
35023;BME280;21214;44.912;8.204;2022-10-16T01:51:45;100086.91;;;17.28;100.00
35023;BME280;21214;44.912;8.204;2022-10-16T01:54:13;100091.78;;;17.24;100.00
35023;BME280;21214;44.912;8.204;2022-10-16T01:56:40;100091.78;;;17.24;100.00
35023;BME280;21214;44.912;8.204;2022-10-16T01:59:11;100098.44;;;17.28;100.00
35023;BME280;21214;44.912;8.204;2022-10-16T02:01:40;100091.72;;;17.32;100.00
35023;BME280;21214;44.912;8.204;2022-10-16T02:04:14;100090.72;;;17.33;100.00
35023;BME280;21214;44.912;8.204;2022-10-16T02:06:41;100094.41;;;17.32;100.00
35023;BME280;21214;44.912;8.204;2022-10-16T02:09:06;100089.06;;;17.32;100.00
35023;BME280;21214;44.912;8.204;2022-10-16T02:11:32;100089.06;;;17.32;100.00
35023;BME280;21214;44.912;8.204;2022-10-16T02:14:05;100098.44;;;17.28;100.00
35023;BME280;21214;44.912;8.204;2022-10-16T02:16:43;100097.94;;;17.25;100.00
35023;BME280;21214;44.912;8.204;2022-10-16T02:19:12;100093.44;;;17.25;100.00
35023;BME280;21214;44.912;8.204;2022-10-16T02:21:44;100086.44;;;17.24;100.00
35023;BME280;21214;44.912;8.204;2022-10-16T02:24:39;100084.78;;;17.23;100.00
35023;BME280;21214;44.912;8.204;2022-10-16T02:29:53;100092.78;;;17.23;100.00
35023;BME280;21214;44.912;8.204;2022-10-16T02:32:24;100087.97;;;17.18;100.00
35023;BME280;21214;44.912;8.204;2022-10-16T02:34:58;100093.47;;;17.09;100.00
35023;BME280;21214;44.912;8.204;2022-10-16T02:37:25;100097.03;;;17.01;100.00
35023;BME280;21214;44.912;8.204;2022-10-16T02:39:52;100094.16;;;17.03;100.00
35023;BME280;21214;44.912;8.204;2022-10-16T02:42:19;100098.19;;;16.99;100.00
35023;BME280;21214;44.912;8.204;2022-10-16T02:44:44;100101.16;;;17.04;100.00
35023;BME280;21214;44.912;8.204;2022-10-16T02:47:10;100101.53;;;17.01;100.00
35023;BME280;21214;44.912;8.204;2022-10-16T02:49:35;100105.50;;;16.97;100.00
35023;BME280;21214;44.912;8.204;2022-10-16T02:52:00;100108.38;;;16.95;100.00
35023;BME280;21214;44.912;8.204;2022-10-16T02:54:26;100110.53;;;17.00;100.00
35023;BME280;21214;44.912;8.204;2022-10-16T02:56:51;100104.19;;;16.93;100.00
35023;BME280;21214;44.912;8.204;2022-10-16T02:59:17;100109.22;;;16.96;100.00
35023;BME280;21214;44.912;8.204;2022-10-16T03:01:42;100111.53;;;16.91;100.00
35023;BME280;21214;44.912;8.204;2022-10-16T03:04:08;100117.88;;;16.90;100.00
35023;BME280;21214;44.912;8.204;2022-10-16T03:06:34;100117.56;;;16.85;100.00
35023;BME280;21214;44.912;8.204;2022-10-16T03:09:00;100119.03;;;16.87;100.00
35023;BME280;21214;44.912;8.204;2022-10-16T03:11:25;100120.88;;;16.87;100.00
35023;BME280;21214;44.912;8.204;2022-10-16T03:13:52;100119.72;;;16.89;100.00
35023;BME280;21214;44.912;8.204;2022-10-16T03:16:17;100116.84;;;16.91;100.00
35023;BME280;21214;44.912;8.204;2022-10-16T03:18:43;100126.19;;;16.87;100.00
35023;BME280;21214;44.912;8.204;2022-10-16T03:21:08;100130.38;;;16.89;100.00
35023;BME280;21214;44.912;8.204;2022-10-16T03:23:34;100117.53;;;16.93;100.00
35023;BME280;21214;44.912;8.204;2022-10-16T03:25:59;100122.34;;;16.97;100.00
35023;BME280;21214;44.912;8.204;2022-10-16T03:28:24;100121.19;;;17.00;100.00
35023;BME280;21214;44.912;8.204;2022-10-16T03:30:50;100128.19;;;17.01;100.00
35023;BME280;21214;44.912;8.204;2022-10-16T03:33:15;100129.03;;;17.01;100.00
35023;BME280;21214;44.912;8.204;2022-10-16T03:35:41;100128.34;;;16.99;100.00
35023;BME280;21214;44.912;8.204;2022-10-16T03:38:06;100126.50;;;17.00;100.00
35023;BME280;21214;44.912;8.204;2022-10-16T03:40:32;100130.84;;;17.01;100.00
35023;BME280;21214;44.912;8.204;2022-10-16T03:42:58;100134.50;;;17.00;100.00
35023;BME280;21214;44.912;8.204;2022-10-16T03:45:24;100138.84;;;17.01;100.00
35023;BME280;21214;44.912;8.204;2022-10-16T03:47:49;100136.81;;;17.03;100.00
35023;BME280;21214;44.912;8.204;2022-10-16T03:50:15;100138.50;;;17.04;100.00
35023;BME280;21214;44.912;8.204;2022-10-16T03:52:41;100133.16;;;17.04;100.00
35023;BME280;21214;44.912;8.204;2022-10-16T03:55:07;100130.66;;;17.02;100.00
35023;BME280;21214;44.912;8.204;2022-10-16T03:57:32;100132.69;;;17.00;100.00
35023;BME280;21214;44.912;8.204;2022-10-16T03:59:58;100140.16;;;16.97;100.00
35023;BME280;21214;44.912;8.204;2022-10-16T04:02:24;100142.19;;;16.87;100.00
35023;BME280;21214;44.912;8.204;2022-10-16T04:04:49;100149.19;;;16.88;100.00
35023;BME280;21214;44.912;8.204;2022-10-16T04:07:15;100148.19;;;16.81;100.00
35023;BME280;21214;44.912;8.204;2022-10-16T04:09:40;100147.38;;;16.80;100.00
35023;BME280;21214;44.912;8.204;2022-10-16T04:12:07;100146.72;;;16.70;100.00
35023;BME280;21214;44.912;8.204;2022-10-16T04:14:32;100155.88;;;16.75;100.00
35023;BME280;21214;44.912;8.204;2022-10-16T04:16:58;100155.19;;;16.73;100.00
35023;BME280;21214;44.912;8.204;2022-10-16T04:19:23;100166.22;;;16.78;100.00
35023;BME280;21214;44.912;8.204;2022-10-16T04:21:49;100167.84;;;16.79;100.00
35023;BME280;21214;44.912;8.204;2022-10-16T04:24:15;100166.53;;;16.84;100.00
35023;BME280;21214;44.912;8.204;2022-10-16T04:26:40;100172.34;;;16.79;100.00
35023;BME280;21214;44.912;8.204;2022-10-16T04:29:07;100167.53;;;16.66;100.00
35023;BME280;21214;44.912;8.204;2022-10-16T04:31:33;100172.53;;;16.69;100.00
35023;BME280;21214;44.912;8.204;2022-10-16T04:33:58;100176.19;;;16.68;100.00
35023;BME280;21214;44.912;8.204;2022-10-16T04:36:24;100171.03;;;16.67;100.00
35023;BME280;21214;44.912;8.204;2022-10-16T04:38:49;100172.53;;;16.69;100.00
35023;BME280;21214;44.912;8.204;2022-10-16T04:41:16;100184.84;;;16.70;100.00
35023;BME280;21214;44.912;8.204;2022-10-16T04:43:41;100177.03;;;16.69;100.00
35023;BME280;21214;44.912;8.204;2022-10-16T04:46:07;100176.19;;;16.68;100.00
35023;BME280;21214;44.912;8.204;2022-10-16T04:48:32;100179.03;;;16.67;100.00
35023;BME280;21214;44.912;8.204;2022-10-16T04:50:58;100182.34;;;16.69;100.00
35023;BME280;21214;44.912;8.204;2022-10-16T04:53:24;100186.53;;;16.71;100.00
35023;BME280;21214;44.912;8.204;2022-10-16T04:55:49;100182.03;;;16.72;100.00
35023;BME280;21214;44.912;8.204;2022-10-16T04:58:15;100194.19;;;16.74;100.00
35023;BME280;21214;44.912;8.204;2022-10-16T05:00:41;100194.34;;;16.73;100.00
35023;BME280;21214;44.912;8.204;2022-10-16T05:03:07;100190.03;;;16.64;100.00
35023;BME280;21214;44.912;8.204;2022-10-16T05:05:35;100187.84;;;16.67;100.00
35023;BME280;21214;44.912;8.204;2022-10-16T05:08:00;100202.84;;;16.68;100.00
35023;BME280;21214;44.912;8.204;2022-10-16T05:10:26;100195.84;;;16.67;100.00
35023;BME280;21214;44.912;8.204;2022-10-16T05:12:51;100192.19;;;16.68;100.00
35023;BME280;21214;44.912;8.204;2022-10-16T05:15:17;100196.19;;;16.64;100.00
35023;BME280;21214;44.912;8.204;2022-10-16T05:17:43;100189.19;;;16.63;100.00
35023;BME280;21214;44.912;8.204;2022-10-16T05:20:10;100200.69;;;16.64;100.00
35023;BME280;21214;44.912;8.204;2022-10-16T05:22:36;100197.84;;;16.65;100.00
35023;BME280;21214;44.912;8.204;2022-10-16T05:25:01;100194.34;;;16.65;100.00
35023;BME280;21214;44.912;8.204;2022-10-16T05:27:27;100196.84;;;16.66;100.00
35023;BME280;21214;44.912;8.204;2022-10-16T05:29:52;100198.84;;;16.64;100.00
35023;BME280;21214;44.912;8.204;2022-10-16T05:32:18;100196.84;;;16.66;100.00
35023;BME280;21214;44.912;8.204;2022-10-16T05:34:44;100205.50;;;16.60;100.00
35023;BME280;21214;44.912;8.204;2022-10-16T05:37:11;100201.81;;;16.53;100.00
35023;BME280;21214;44.912;8.204;2022-10-16T05:39:37;100198.81;;;16.48;100.00
35023;BME280;21214;44.912;8.204;2022-10-16T05:42:04;100207.63;;;16.49;100.00
35023;BME280;21214;44.912;8.204;2022-10-16T05:44:29;100208.47;;;16.49;100.00
35023;BME280;21214;44.912;8.204;2022-10-16T05:46:55;100207.78;;;16.47;100.00
35023;BME280;21214;44.912;8.204;2022-10-16T05:49:20;100206.47;;;16.43;100.00
35023;BME280;21214;44.912;8.204;2022-10-16T05:51:46;100207.47;;;16.42;100.00
35023;BME280;21214;44.912;8.204;2022-10-16T05:54:11;100207.63;;;16.41;100.00
35023;BME280;21214;44.912;8.204;2022-10-16T05:56:36;100211.78;;;16.43;100.00
35023;BME280;21214;44.912;8.204;2022-10-16T05:59:03;100208.75;;;16.38;100.00
35023;BME280;21214;44.912;8.204;2022-10-16T06:01:29;100212.06;;;16.32;100.00
35023;BME280;21214;44.912;8.204;2022-10-16T06:03:56;100218.25;;;16.32;100.00
35023;BME280;21214;44.912;8.204;2022-10-16T06:06:24;100223.25;;;16.35;100.00
35023;BME280;21214;44.912;8.204;2022-10-16T06:08:52;100216.25;;;16.34;100.00
35023;BME280;21214;44.912;8.204;2022-10-16T06:11:22;100224.94;;;16.36;100.00
35023;BME280;21214;44.912;8.204;2022-10-16T06:13:51;100221.59;;;16.34;100.00
35023;BME280;21214;44.912;8.204;2022-10-16T06:16:17;100223.06;;;16.29;100.00
35023;BME280;21214;44.912;8.204;2022-10-16T06:18:42;100224.41;;;16.25;100.00
35023;BME280;21214;44.912;8.204;2022-10-16T06:21:17;100229.88;;;16.23;100.00
35023;BME280;21214;44.912;8.204;2022-10-16T06:23:42;100235.72;;;16.27;100.00
35023;BME280;21214;44.912;8.204;2022-10-16T06:26:12;100238.72;;;16.24;100.00
35023;BME280;21214;44.912;8.204;2022-10-16T06:28:38;100242.38;;;16.23;100.00
35023;BME280;21214;44.912;8.204;2022-10-16T06:31:05;100245.88;;;16.23;100.00
35023;BME280;21214;44.912;8.204;2022-10-16T06:33:32;100245.88;;;16.23;100.00
35023;BME280;21214;44.912;8.204;2022-10-16T06:36:11;100258.00;;;16.18;100.00
35023;BME280;21214;44.912;8.204;2022-10-16T06:38:37;100253.03;;;16.23;100.00
35023;BME280;21214;44.912;8.204;2022-10-16T06:41:04;100261.00;;;16.23;100.00
35023;BME280;21214;44.912;8.204;2022-10-16T06:43:30;100267.47;;;16.20;100.00
35023;BME280;21214;44.912;8.204;2022-10-16T06:46:04;100268.31;;;16.21;100.00
35023;BME280;21214;44.912;8.204;2022-10-16T06:48:30;100275.31;;;16.22;100.00
35023;BME280;21214;44.912;8.204;2022-10-16T06:50:58;100278.13;;;16.20;100.00
35023;BME280;21214;44.912;8.204;2022-10-16T06:53:24;100273.00;;;16.19;100.00
35023;BME280;21214;44.912;8.204;2022-10-16T06:55:50;100278.31;;;16.19;100.00
35023;BME280;21214;44.912;8.204;2022-10-16T06:58:16;100282.66;;;16.20;100.00
35023;BME280;21214;44.912;8.204;2022-10-16T07:00:41;100287.78;;;16.21;100.00
35023;BME280;21214;44.912;8.204;2022-10-16T07:03:07;100298.63;;;16.20;100.00
35023;BME280;21214;44.912;8.204;2022-10-16T07:05:42;100294.28;;;16.19;100.00
35023;BME280;21214;44.912;8.204;2022-10-16T07:08:08;100294.88;;;16.05;100.00
35023;BME280;21214;44.912;8.204;2022-10-16T07:10:35;100298.66;;;15.94;100.00
35023;BME280;21214;44.912;8.204;2022-10-16T07:13:01;100303.31;;;15.92;100.00
35023;BME280;21214;44.912;8.204;2022-10-16T07:15:26;100308.13;;;15.88;100.00
35023;BME280;21214;44.912;8.204;2022-10-16T07:17:52;100304.94;;;15.85;100.00
35023;BME280;21214;44.912;8.204;2022-10-16T07:20:18;100307.28;;;15.88;100.00
35023;BME280;21214;44.912;8.204;2022-10-16T07:22:44;100312.13;;;15.92;100.00
35023;BME280;21214;44.912;8.204;2022-10-16T07:25:09;100323.81;;;16.00;100.00
35023;BME280;21214;44.912;8.204;2022-10-16T07:27:36;100314.84;;;16.01;100.00
35023;BME280;21214;44.912;8.204;2022-10-16T07:30:02;100318.56;;;16.16;100.00
35023;BME280;21214;44.912;8.204;2022-10-16T07:32:28;100331.78;;;16.25;100.00
35023;BME280;21214;44.912;8.204;2022-10-16T07:34:53;100330.94;;;16.33;100.00
35023;BME280;21214;44.912;8.204;2022-10-16T07:37:21;100328.63;;;16.38;100.00
35023;BME280;21214;44.912;8.204;2022-10-16T07:39:46;100333.31;;;16.44;100.00
35023;BME280;21214;44.912;8.204;2022-10-16T07:42:19;100335.31;;;16.50;100.00
35023;BME280;21214;44.912;8.204;2022-10-16T07:44:45;100338.19;;;16.57;100.00
35023;BME280;21214;44.912;8.204;2022-10-16T07:47:11;100343.88;;;16.62;100.00
35023;BME280;21214;44.912;8.204;2022-10-16T07:49:36;100343.72;;;16.63;100.00
35023;BME280;21214;44.912;8.204;2022-10-16T07:52:02;100349.06;;;16.63;100.00
35023;BME280;21214;44.912;8.204;2022-10-16T07:54:27;100348.25;;;16.71;100.00
35023;BME280;21214;44.912;8.204;2022-10-16T07:56:52;100361.44;;;16.81;100.00
35023;BME280;21214;44.912;8.204;2022-10-16T07:59:18;100359.09;;;16.86;100.00
35023;BME280;21214;44.912;8.204;2022-10-16T08:01:43;100362.63;;;16.94;100.00
35023;BME280;21214;44.912;8.204;2022-10-16T08:04:09;100362.81;;;17.01;100.00
35023;BME280;21214;44.912;8.204;2022-10-16T08:06:37;100364.81;;;17.07;100.00
35023;BME280;21214;44.912;8.204;2022-10-16T08:09:03;100358.31;;;17.17;100.00
35023;BME280;21214;44.912;8.204;2022-10-16T08:11:29;100355.84;;;17.24;100.00
35023;BME280;21214;44.912;8.204;2022-10-16T08:13:54;100362.50;;;17.36;100.00
35023;BME280;21214;44.912;8.204;2022-10-16T08:16:20;100366.84;;;17.37;100.00
35023;BME280;21214;44.912;8.204;2022-10-16T08:18:46;100370.50;;;17.44;100.00
35023;BME280;21214;44.912;8.204;2022-10-16T08:21:17;100377.19;;;17.48;100.00
35023;BME280;21214;44.912;8.204;2022-10-16T08:23:43;100384.69;;;17.53;100.00
35023;BME280;21214;44.912;8.204;2022-10-16T08:26:10;100384.53;;;17.63;100.00
35023;BME280;21214;44.912;8.204;2022-10-16T08:28:35;100394.22;;;17.72;100.00
35023;BME280;21214;44.912;8.204;2022-10-16T08:31:09;100383.69;;;17.78;100.00
35023;BME280;21214;44.912;8.204;2022-10-16T08:33:35;100385.19;;;17.89;100.00
35023;BME280;21214;44.912;8.204;2022-10-16T08:36:02;100390.69;;;17.95;100.00
35023;BME280;21214;44.912;8.204;2022-10-16T08:38:28;100387.97;;;18.04;100.00
35023;BME280;21214;44.912;8.204;2022-10-16T08:41:20;100393.47;;;18.10;100.00
35023;BME280;21214;44.912;8.204;2022-10-16T08:44:07;100387.97;;;18.04;100.00
35023;BME280;21214;44.912;8.204;2022-10-16T08:49:02;100390.97;;;18.09;100.00
35023;BME280;21214;44.912;8.204;2022-10-16T08:51:31;100394.44;;;18.17;100.00
35023;BME280;21214;44.912;8.204;2022-10-16T08:54:05;100394.25;;;18.27;100.00
35023;BME280;21214;44.912;8.204;2022-10-16T08:56:32;100400.09;;;18.30;100.00
35023;BME280;21214;44.912;8.204;2022-10-16T08:58:59;100402.25;;;18.27;100.00
35023;BME280;21214;44.912;8.204;2022-10-16T09:01:36;100399.94;;;18.24;100.00
35023;BME280;21214;44.912;8.204;2022-10-16T09:07:01;100398.72;;;18.42;100.00
35023;BME280;21214;44.912;8.204;2022-10-16T09:09:40;100405.38;;;18.47;100.00
35023;BME280;21214;44.912;8.204;2022-10-16T09:18:05;100411.34;;;18.65;100.00
35023;BME280;21214;44.912;8.204;2022-10-16T09:25:30;100420.59;;;18.85;100.00
35023;BME280;21214;44.912;8.204;2022-10-16T09:27:57;100421.25;;;18.87;100.00
35023;BME280;21214;44.912;8.204;2022-10-16T09:30:22;100419.56;;;18.94;100.00
35023;BME280;21214;44.912;8.204;2022-10-16T09:32:52;100416.84;;;19.02;100.00
35023;BME280;21214;44.912;8.204;2022-10-16T09:38:03;100422.09;;;19.18;100.00
35023;BME280;21214;44.912;8.204;2022-10-16T09:40:38;100427.91;;;19.22;100.00
35023;BME280;21214;44.912;8.204;2022-10-16T09:43:30;100423.56;;;19.21;100.00
35023;BME280;21214;44.912;8.204;2022-10-16T09:45:58;100429.75;;;19.21;100.00
35023;BME280;21214;44.912;8.204;2022-10-16T09:48:28;100421.38;;;19.25;100.00
35023;BME280;21214;44.912;8.204;2022-10-16T09:50:58;100423.34;;;19.31;100.00
35023;BME280;21214;44.912;8.204;2022-10-16T09:53:27;100425.94;;;19.39;100.00
35023;BME280;21214;44.912;8.204;2022-10-16T09:56:02;100423.44;;;19.45;100.00
35023;BME280;21214;44.912;8.204;2022-10-16T09:58:30;100435.94;;;19.53;100.00
35023;BME280;21214;44.912;8.204;2022-10-16T10:00:58;100433.13;;;19.38;100.00
35023;BME280;21214;44.912;8.204;2022-10-16T10:03:38;100435.31;;;19.43;100.00
35023;BME280;21214;44.912;8.204;2022-10-16T10:06:25;100435.66;;;19.40;100.00
35023;BME280;21214;44.912;8.204;2022-10-16T10:08:55;100437.31;;;19.41;100.00
35023;BME280;21214;44.912;8.204;2022-10-16T10:12:02;100433.63;;;19.42;100.00
35023;BME280;21214;44.912;8.204;2022-10-16T10:14:36;100434.63;;;19.49;100.00
35023;BME280;21214;44.912;8.204;2022-10-16T10:19:59;100421.78;;;19.67;100.00
35023;BME280;21214;44.912;8.204;2022-10-16T10:22:41;100423.34;;;19.76;100.00
35023;BME280;21214;44.912;8.204;2022-10-16T10:27:43;100419.22;;;19.88;100.00
35023;BME280;21214;44.912;8.204;2022-10-16T10:36:28;100419.44;;;20.01;100.00
35023;BME280;21214;44.912;8.204;2022-10-16T10:47:27;100413.75;;;20.34;100.00
35023;BME280;21214;44.912;8.204;2022-10-16T11:06:26;100417.53;;;21.05;100.00
35023;BME280;21214;44.912;8.204;2022-10-16T11:09:10;100411.41;;;21.11;100.00
35023;BME280;21214;44.912;8.204;2022-10-16T11:11:43;100408.81;;;21.17;100.00
35023;BME280;21214;44.912;8.204;2022-10-16T11:22:12;100406.03;;;21.11;100.00
35023;BME280;21214;44.912;8.204;2022-10-16T11:24:53;100411.97;;;21.06;100.00
35023;BME280;21214;44.912;8.204;2022-10-16T11:27:26;100407.19;;;21.02;100.00
35023;BME280;21214;44.912;8.204;2022-10-16T11:29:58;100397.84;;;20.98;100.00
35023;BME280;21214;44.912;8.204;2022-10-16T11:32:42;100397.56;;;20.93;100.00
35023;BME280;21214;44.912;8.204;2022-10-16T11:35:25;100401.22;;;20.85;100.00
35023;BME280;21214;44.912;8.204;2022-10-16T11:37:56;100396.59;;;20.79;100.00
35023;BME280;21214;44.912;8.204;2022-10-16T11:40:32;100394.56;;;20.81;100.00
35023;BME280;21214;44.912;8.204;2022-10-16T11:43:06;100392.22;;;20.93;100.00
35023;BME280;21214;44.912;8.204;2022-10-16T11:45:42;100385.31;;;21.05;100.00
35023;BME280;21214;44.912;8.204;2022-10-16T11:51:08;100380.38;;;21.23;100.00
35023;BME280;21214;44.912;8.204;2022-10-16T11:56:17;100377.06;;;21.42;100.00
35023;BME280;21214;44.912;8.204;2022-10-16T11:58:55;100374.22;;;21.50;100.00
35023;BME280;21214;44.912;8.204;2022-10-16T12:01:47;100371.84;;;21.62;100.00
35023;BME280;21214;44.912;8.204;2022-10-16T12:04:22;100372.69;;;21.62;100.00
35023;BME280;21214;44.912;8.204;2022-10-16T12:07:07;100374.75;;;21.60;100.00
35023;BME280;21214;44.912;8.204;2022-10-16T12:09:38;100373.72;;;21.61;100.00
35023;BME280;21214;44.912;8.204;2022-10-16T12:12:04;100371.41;;;21.58;100.00
35023;BME280;21214;44.912;8.204;2022-10-16T12:17:03;100376.91;;;21.72;100.00
35023;BME280;21214;44.912;8.204;2022-10-16T12:19:31;100381.50;;;21.78;100.00
35023;BME280;21214;44.912;8.204;2022-10-16T12:22:02;100376.25;;;21.70;100.00
35023;BME280;21214;44.912;8.204;2022-10-16T12:24:38;100376.94;;;21.78;100.00
35023;BME280;21214;44.912;8.204;2022-10-16T12:27:19;100376.59;;;21.88;100.00
35023;BME280;21214;44.912;8.204;2022-10-16T12:29:55;100368.03;;;21.99;100.00
35023;BME280;21214;44.912;8.204;2022-10-16T12:32:33;100371.22;;;22.16;100.00
35023;BME280;21214;44.912;8.204;2022-10-16T12:35:03;100369.31;;;22.10;100.00
35023;BME280;21214;44.912;8.204;2022-10-16T12:37:34;100370.94;;;22.04;100.00
35023;BME280;21214;44.912;8.204;2022-10-16T12:40:22;100372.78;;;21.97;100.00
35023;BME280;21214;44.912;8.204;2022-10-16T12:42:49;100371.03;;;21.89;100.00
35023;BME280;21214;44.912;8.204;2022-10-16T12:45:32;100378.63;;;21.86;100.00
35023;BME280;21214;44.912;8.204;2022-10-16T12:48:00;100374.56;;;21.90;100.00
35023;BME280;21214;44.912;8.204;2022-10-16T12:52:53;100364.78;;;22.10;100.00
35023;BME280;21214;44.912;8.204;2022-10-16T12:55:21;100367.69;;;22.15;100.00
35023;BME280;21214;44.912;8.204;2022-10-16T13:06:14;100361.66;;;22.48;100.00
35023;BME280;21214;44.912;8.204;2022-10-16T13:11:41;100370.75;;;22.46;100.00
35023;BME280;21214;44.912;8.204;2022-10-16T13:20:17;100372.59;;;22.39;100.00
35023;BME280;21214;44.912;8.204;2022-10-16T13:23:15;100367.13;;;22.61;100.00
35023;BME280;21214;44.912;8.204;2022-10-16T13:28:30;100364.28;;;22.75;100.00
35023;BME280;21214;44.912;8.204;2022-10-16T13:30:58;100362.19;;;22.71;100.00
35023;BME280;21214;44.912;8.204;2022-10-16T13:35:57;100362.03;;;22.79;100.00
35023;BME280;21214;44.912;8.204;2022-10-16T13:38:27;100367.56;;;22.71;100.00
35023;BME280;21214;44.912;8.204;2022-10-16T13:40:57;100372.91;;;22.64;100.00
35023;BME280;21214;44.912;8.204;2022-10-16T13:43:41;100364.19;;;22.56;100.00
35023;BME280;21214;44.912;8.204;2022-10-16T13:46:21;100369.31;;;22.44;100.00
35023;BME280;21214;44.912;8.204;2022-10-16T13:51:25;100367.41;;;22.31;100.00
35023;BME280;21214;44.912;8.204;2022-10-16T13:53:51;100369.44;;;22.29;100.00
35023;BME280;21214;44.912;8.204;2022-10-16T13:56:19;100376.88;;;22.27;100.00
35023;BME280;21214;44.912;8.204;2022-10-16T13:58:45;100376.41;;;22.17;100.00
35023;BME280;21214;44.912;8.204;2022-10-16T14:01:23;100375.38;;;22.18;100.00
35023;BME280;21214;44.912;8.204;2022-10-16T14:03:51;100375.38;;;22.18;100.00
35023;BME280;21214;44.912;8.204;2022-10-16T14:06:20;100373.91;;;22.16;100.00
35023;BME280;21214;44.912;8.204;2022-10-16T14:09:40;100378.44;;;22.15;100.00
35023;BME280;21214;44.912;8.204;2022-10-16T14:11:54;100372.06;;;22.16;100.00
35023;BME280;21214;44.912;8.204;2022-10-16T14:14:21;100382.81;;;22.16;100.00
35023;BME280;21214;44.912;8.204;2022-10-16T14:16:47;100375.16;;;22.13;100.00
35023;BME280;21214;44.912;8.204;2022-10-16T14:19:25;100382.75;;;22.10;100.00
35023;BME280;21214;44.912;8.204;2022-10-16T14:21:52;100383.44;;;22.18;100.00
35023;BME280;21214;44.912;8.204;2022-10-16T14:26:57;100376.22;;;22.19;100.00
35023;BME280;21214;44.912;8.204;2022-10-16T14:29:25;100374.13;;;22.14;100.00
35023;BME280;21214;44.912;8.204;2022-10-16T14:32:20;100370.50;;;22.00;100.00
35023;BME280;21214;44.912;8.204;2022-10-16T14:34:53;100370.94;;;22.04;100.00
35023;BME280;21214;44.912;8.204;2022-10-16T14:37:29;100376.06;;;21.99;100.00
35023;BME280;21214;44.912;8.204;2022-10-16T14:39:55;100382.47;;;21.98;100.00
35023;BME280;21214;44.912;8.204;2022-10-16T14:42:24;100383.03;;;21.93;100.00
35023;BME280;21214;44.912;8.204;2022-10-16T14:44:51;100387.41;;;21.94;100.00
35023;BME280;21214;44.912;8.204;2022-10-16T14:47:24;100384.56;;;21.96;100.00